Accueil
METAR-TAF:

METAR-TAF

Aéroports :

Aéroport de Dortmund

Dortmund, Allemagne

latitude: 51-31N, longitude: 007-37E, altitude: 127 m

Observation

Le bulletin a été fait il y a 21 minutes, à 17:50 UTC
Vent 5 kt de sud/sud-ouest
Température 22°C
Humidité 65%
Pression 1018 hPa
Visibilité 10 km ou plus
pas de nuages en-dessous de 1500 mètres et pas de cumulonimbus.

METAR: EDLW 151750Z 20005KT CAVOK 22/15 Q1018

Heure: 20:11 (18:11 UTC)

Prévision

Le bulletin a été fait il y a 1 heure et 11 minutes, à 17:00 UTC
Prévision valable du 15 à 18 UTC au 16 à 18 UTC
Vent 7 kt de sud-ouest
Visibilité 10 km ou plus
Nuages épars à une hauteur de 4500 ft
Evoluant progressivement
du 15 à 19 UTC au 15 à 21 UTC
Vent 5 kt de sud
Evoluant progressivement
du 16 à 06 UTC au 16 à 09 UTC
Vent 9 kt de sud-ouest

TAF: EDLW 151700Z 1518/1618 23007KT 9999 SCT045 BECMG 1519/1521 17005KT BECMG 1606/1609 23009KT

Observations et prévisions météorologiques de plus de 4000 aéroports (messages METAR et TAF).

Les stations disponibles sont représentées par des disques jaunes et rouges sur la carte.

Passer la souris dessus pour voir le nom de la station.

Cliquer dessus pour voir les observations et prévisions météorologiques.

Pour changer de carte: cliquez sur les boutons verts avec une croix noire pour zoomer, sur le bouton vert avec un tiret pour effectuer un zoom arrière, ou sur les flèches vertes pour les cartes adjacentes.


METAR-TAF: